Time;durP1;ratioP1;P1;durP2;ratioP2;P2;SDS_P1;SDS_P2;PMS_P1;PMS_P2;Temp;Humidity;BMP_temperature;BMP_pressure;BME280_temperature;BME280_humidity;BME280_pressure;Samples;Min_cycle;Max_cycle;Signal;HPM_P1;HPM_P2
2023/07/20 02:52:50;;;;;;;1.65;0.80;;;13.50;99.90;;;;;;4770551;30;20492;-96
2023/07/20 02:55:19;;;;;;;2.67;0.60;;;13.40;99.90;;;;;;4759436;30;20158;-96
2023/07/20 02:57:45;;;;;;;1.13;0.70;;;13.40;99.90;;;;;;4771627;30;20059;-95
2023/07/20 03:00:21;;;;;;;1.38;0.95;;;13.40;99.90;;;;;;4778020;30;20171;-96
2023/07/20 03:02:55;;;;;;;1.02;0.77;;;13.40;99.90;;;;;;4755562;29;20066;-96
2023/07/20 03:05:32;;;;;;;0.82;0.68;;;13.40;99.90;;;;;;4742177;30;20055;-95
2023/07/20 03:08:38;;;;;;;1.50;0.73;;;13.30;99.90;;;;;;4755036;30;20492;-96
2023/07/20 03:11:17;;;;;;;2.00;1.20;;;13.40;99.90;;;;;;4701099;30;20497;-95
2023/07/20 03:13:58;;;;;;;0.77;0.60;;;13.30;99.90;;;;;;4707463;30;20054;-95
2023/07/20 03:16:43;;;;;;;1.58;0.70;;;13.30;99.90;;;;;;4781470;30;20516;-96
2023/07/20 03:19:23;;;;;;;1.70;0.70;;;13.30;99.90;;;;;;4770975;30;20052;-96
2023/07/20 03:21:52;;;;;;;2.03;0.70;;;13.30;99.90;;;;;;4738823;30;20051;-94
2023/07/20 03:24:20;;;;;;;1.35;0.70;;;13.30;99.90;;;;;;4771963;30;20113;-95
2023/07/20 03:26:59;;;;;;;1.13;0.63;;;13.30;99.90;;;;;;4757627;30;20139;-95
2023/07/20 03:29:49;;;;;;;1.10;0.63;;;13.30;99.90;;;;;;4770874;30;20456;-96
2023/07/20 03:32:18;;;;;;;3.45;0.70;;;13.80;99.90;;;;;;4757664;30;20055;-95
2023/07/20 03:34:51;;;;;;;2.20;0.68;;;13.30;99.90;;;;;;4752363;30;20058;-95
2023/07/20 03:37:19;;;;;;;3.13;0.80;;;13.30;99.90;;;;;;4778464;29;20048;-95
2023/07/20 03:39:51;;;;;;;1.75;0.80;;;13.30;99.90;;;;;;4770644;29;20055;-96
2023/07/20 03:42:20;;;;;;;1.10;0.65;;;13.30;99.90;;;;;;4746077;30;20048;-95
2023/07/20 03:44:49;;;;;;;4.20;1.15;;;13.30;99.90;;;;;;4755582;30;20138;-96
2023/07/20 03:47:25;;;;;;;1.45;1.00;;;13.20;99.90;;;;;;4770647;29;20698;-96
2023/07/20 03:49:57;;;;;;;2.10;1.00;;;13.30;99.90;;;;;;4755157;30;20047;-96
2023/07/20 03:52:36;;;;;;;1.27;0.80;;;13.20;99.90;;;;;;4769134;30;20052;-96
2023/07/20 03:55:06;;;;;;;2.08;0.82;;;13.10;99.90;;;;;;4785723;30;20047;-96
2023/07/20 03:57:33;;;;;;;1.83;0.80;;;13.20;99.90;;;;;;4788716;29;20047;-95
2023/07/20 04:00:07;;;;;;;1.10;0.70;;;13.30;99.90;;;;;;4773221;30;20086;-96
2023/07/20 04:02:38;;;;;;;1.73;0.90;;;12.70;99.90;;;;;;4792080;29;20051;-95
2023/07/20 04:05:16;;;;;;;1.38;0.70;;;13.20;99.90;;;;;;4772889;29;20043;-96
2023/07/20 04:07:42;;;;;;;2.25;0.80;;;13.10;99.90;;;;;;4787808;29;20522;-96
2023/07/20 04:10:11;;;;;;;1.75;0.73;;;13.20;99.90;;;;;;4787952;29;20051;-95
2023/07/20 04:12:46;;;;;;;1.60;0.90;;;13.30;99.90;;;;;;4800680;29;20051;-95
2023/07/20 04:15:18;;;;;;;0.93;0.52;;;13.20;99.90;;;;;;4772539;30;20117;-95
2023/07/20 04:17:50;;;;;;;1.50;1.00;;;13.30;99.90;;;;;;4787935;29;20138;-95
2023/07/20 07:07:42;;;;;;;;;;;;;;;;;;;;;
2023/07/20 07:11:15;;;;;;;0.80;0.68;;;23.10;96.30;;;;;;4817323;29;20079;-96
2023/07/20 07:18:23;;;;;;;2.75;1.00;;;23.60;96.20;;;;;;4762185;30;20052;-95
2023/07/20 07:21:43;;;;;;;1.63;0.80;;;23.80;94.60;;;;;;4756541;30;20039;-95
2023/07/20 07:31:15;;;;;;;2.28;0.63;;;23.30;92.30;;;;;;4734545;30;20071;-96
2023/07/20 07:33:57;;;;;;;1.27;0.50;;;23.40;92.40;;;;;;4678327;30;20126;-95
2023/07/20 07:37:26;;;;;;;1.50;0.80;;;23.50;92.20;;;;;;4730578;30;20028;-96
2023/07/20 15:07:57;;;;;;;1.65;0.40;;;19.10;99.90;;;;;;4829039;29;20480;-36
2023/07/20 15:10:23;;;;;;;1.83;0.50;;;19.20;99.90;;;;;;4831836;29;20062;-36
2023/07/20 15:12:54;;;;;;;3.13;0.50;;;19.20;99.90;;;;;;4805589;29;20078;-36
2023/07/20 15:15:20;;;;;;;1.00;0.50;;;19.30;99.90;;;;;;4827652;29;20042;-36
2023/07/20 15:17:45;;;;;;;1.85;0.40;;;19.40;99.90;;;;;;4830121;29;20437;-36
2023/07/20 15:20:13;;;;;;;2.80;0.68;;;19.50;99.90;;;;;;4829156;29;20053;-36
2023/07/20 15:22:39;;;;;;;1.48;0.60;;;19.50;99.90;;;;;;4832150;29;20050;-36
2023/07/20 15:25:11;;;;;;;0.95;0.50;;;19.50;99.90;;;;;;4836244;29;20482;-36
2023/07/20 15:27:37;;;;;;;1.05;0.50;;;19.50;99.90;;;;;;4826792;29;20530;-36
2023/07/20 15:30:03;;;;;;;2.33;0.60;;;19.50;99.90;;;;;;4835258;29;20053;-36
2023/07/20 15:32:29;;;;;;;4.40;0.80;;;19.50;99.90;;;;;;4835184;29;20053;-36
2023/07/20 15:34:55;;;;;;;3.70;0.55;;;19.30;99.90;;;;;;4831396;29;20467;-36
2023/07/20 15:37:21;;;;;;;1.38;0.80;;;19.10;99.90;;;;;;4826660;29;20038;-36
2023/07/20 15:39:50;;;;;;;1.30;0.50;;;19.00;99.90;;;;;;4835873;29;20129;-36
2023/07/20 15:42:16;;;;;;;1.20;0.80;;;18.90;99.90;;;;;;4821219;29;20445;-36
2023/07/20 15:44:43;;;;;;;1.27;0.65;;;18.80;99.90;;;;;;4826791;29;20053;-36
2023/07/20 15:47:12;;;;;;;0.85;0.60;;;18.80;99.90;;;;;;4831936;29;20069;-36
2023/07/20 15:49:38;;;;;;;1.38;0.63;;;18.70;99.90;;;;;;4816874;29;20393;-36
2023/07/20 15:52:06;;;;;;;1.23;0.60;;;18.70;99.90;;;;;;4828823;29;20337;-36
2023/07/20 15:54:32;;;;;;;1.52;0.63;;;18.60;99.90;;;;;;4831167;29;20117;-36
2023/07/20 15:56:57;;;;;;;2.05;0.60;;;18.60;99.90;;;;;;4835140;29;20046;-36
2023/07/20 15:59:23;;;;;;;1.40;0.50;;;18.70;99.90;;;;;;4837739;29;20042;-36
2023/07/20 16:01:49;;;;;;;1.80;0.60;;;18.70;99.90;;;;;;4839188;29;20569;-36
2023/07/20 16:04:15;;;;;;;1.30;0.57;;;18.70;99.90;;;;;;4837524;29;20045;-36
2023/07/20 16:06:41;;;;;;;2.42;0.60;;;18.70;99.90;;;;;;4830798;29;20054;-36
2023/07/20 16:09:09;;;;;;;1.38;0.50;;;18.80;99.90;;;;;;4835291;29;20054;-36
2023/07/20 16:11:35;;;;;;;0.95;0.50;;;18.90;99.90;;;;;;4834136;29;20081;-36
2023/07/20 16:14:02;;;;;;;1.67;0.50;;;19.00;99.90;;;;;;4832150;29;20522;-36
2023/07/20 16:16:31;;;;;;;1.03;0.70;;;19.00;99.90;;;;;;4839360;29;20045;-36
2023/07/20 16:18:57;;;;;;;0.85;0.50;;;19.10;99.90;;;;;;4838651;29;20054;-36
2023/07/20 16:21:23;;;;;;;3.03;0.65;;;19.00;99.90;;;;;;4832280;29;20124;-36
2023/07/20 16:23:50;;;;;;;0.85;0.50;;;19.00;99.90;;;;;;4830590;29;20170;-36
2023/07/20 16:26:16;;;;;;;2.20;0.40;;;19.10;99.90;;;;;;4833980;29;20048;-36
2023/07/20 16:28:45;;;;;;;1.85;0.40;;;19.10;99.90;;;;;;4840749;29;20446;-36
2023/07/20 16:31:15;;;;;;;1.80;0.38;;;19.00;99.90;;;;;;4839124;29;20042;-36
2023/07/20 16:33:43;;;;;;;1.58;0.60;;;19.00;99.90;;;;;;4830612;29;20049;-36
2023/07/20 16:36:15;;;;;;;1.27;0.30;;;19.10;99.90;;;;;;4830281;29;20405;-36
2023/07/20 16:38:42;;;;;;;1.58;0.50;;;19.00;99.90;;;;;;4822940;29;20500;-36
2023/07/20 16:41:09;;;;;;;1.00;0.40;;;19.00;99.90;;;;;;4836979;29;20594;-36
2023/07/20 16:43:35;;;;;;;;;;;18.90;99.90;;;;;;4826408;29;20054;-36
2023/07/20 16:46:03;;;;;;;1.35;0.32;;;18.80;99.90;;;;;;4850466;29;19932;-36
2023/07/20 16:48:32;;;;;;;1.20;0.32;;;18.90;99.90;;;;;;4815012;29;20066;-36
2023/07/20 16:50:59;;;;;;;1.45;0.50;;;18.90;99.90;;;;;;4832088;29;20119;-36
2023/07/20 16:53:25;;;;;;;0.82;0.40;;;19.00;99.90;;;;;;4826046;29;20038;-36
2023/07/20 16:55:55;;;;;;;1.85;0.40;;;19.10;99.90;;;;;;4831047;29;20141;-38
2023/07/20 16:58:24;;;;;;;1.52;0.50;;;19.20;99.90;;;;;;4832143;29;20111;-38
2023/07/20 17:00:50;;;;;;;1.25;0.40;;;19.20;99.90;;;;;;4834725;29;20050;-38
2023/07/20 17:03:16;;;;;;;1.73;0.50;;;19.20;99.90;;;;;;4826264;29;20046;-38
2023/07/20 17:05:43;;;;;;;2.27;0.30;;;19.10;99.90;;;;;;4834030;29;20493;-38
2023/07/20 17:08:09;;;;;;;1.20;0.50;;;19.10;99.90;;;;;;4826085;29;20084;-38
2023/07/20 17:10:36;;;;;;;1.75;0.50;;;19.20;99.90;;;;;;4834810;29;20129;-38
2023/07/20 17:13:06;;;;;;;1.10;0.50;;;19.20;99.90;;;;;;4825773;29;20486;-38
2023/07/20 17:15:32;;;;;;;0.80;0.50;;;19.20;99.90;;;;;;4833286;29;20500;-38
2023/07/20 17:17:58;;;;;;;0.88;0.52;;;19.20;99.90;;;;;;4836363;29;20158;-38
2023/07/20 17:20:43;;;;;;;1.27;0.50;;;19.20;99.90;;;;;;4832796;29;20046;-38
2023/07/20 17:23:57;;;;;;;0.77;0.40;;;19.20;99.90;;;;;;4832221;29;20520;-38
2023/07/20 17:30:00;;;;;;;0.85;0.50;;;19.30;99.90;;;;;;4835290;29;20053;-38
2023/07/20 17:32:26;;;;;;;1.80;0.70;;;19.20;99.90;;;;;;4831035;29;20113;-39
2023/07/20 17:35:00;;;;;;;2.22;0.50;;;19.20;99.90;;;;;;4820972;29;20589;-39
2023/07/20 17:37:40;;;;;;;0.93;0.40;;;19.20;99.90;;;;;;4828145;29;20046;-38
2023/07/20 17:40:13;;;;;;;1.88;0.50;;;19.10;99.90;;;;;;4828696;29;20519;-38
2023/07/20 17:42:42;;;;;;;1.23;0.43;;;19.10;99.90;;;;;;4836771;29;20077;-38
2023/07/20 17:45:10;;;;;;;3.30;0.47;;;19.10;99.90;;;;;;4837060;29;20114;-38
2023/07/20 17:48:06;;;;;;;2.55;0.68;;;19.00;99.90;;;;;;4816355;29;20049;-38
2023/07/20 17:51:01;;;;;;;1.23;0.40;;;19.00;99.90;;;;;;4832519;29;20064;-39
2023/07/20 18:09:57;;;;;;;2.72;0.60;;;18.70;99.90;;;;;;5120729;27;24438;-96
2023/07/20 18:12:26;;;;;;;1.15;0.50;;;18.70;99.90;;;;;;5116107;27;20040;-96
2023/07/20 18:14:53;;;;;;;2.30;0.50;;;18.60;99.90;;;;;;5108845;28;20032;-96
2023/07/20 19:06:23;;;;;;;1.13;0.60;;;17.20;99.90;;;;;;5030417;28;20127;-96
2023/07/20 19:17:24;;;;;;;;;;;;;;;;;;;;;
2023/07/20 19:43:14;;;;;;;;;;;;;;;;;;;;;
2023/07/20 19:46:59;;;;;;;;;;;;;;;;;;;;;
2023/07/20 19:54:48;;;;;;;1.58;0.93;;;16.10;99.90;;;;;;4834736;29;20049;-96
2023/07/20 20:01:01;;;;;;;;;;;;;;;;;;;;;
2023/07/20 20:05:05;;;;;;;2.28;1.38;;;15.90;99.90;;;;;;4811436;29;20186;-96
2023/07/20 20:31:02;;;;;;;3.70;1.27;;;15.50;99.90;;;;;;4801016;29;20055;-96
2023/07/20 20:37:34;;;;;;;3.35;1.20;;;15.30;99.90;;;;;;4766066;29;20054;-96
2023/07/20 20:40:58;;;;;;;3.13;1.20;;;15.30;99.90;;;;;;4800394;29;20042;-96
2023/07/20 20:43:37;;;;;;;2.50;1.10;;;15.30;99.90;;;;;;4832189;29;20049;-96
2023/07/20 20:47:04;;;;;;;3.58;0.98;;;15.20;99.90;;;;;;4910831;29;20044;-96
2023/07/20 20:50:10;;;;;;;1.80;1.10;;;15.40;99.90;;;;;;4928468;29;20067;-96
2023/07/20 20:53:09;;;;;;;4.05;1.38;;;15.20;99.90;;;;;;4933140;29;20035;-96
2023/07/20 20:55:51;;;;;;;2.47;1.00;;;15.20;99.90;;;;;;4922424;29;20487;-96
2023/07/20 20:58:34;;;;;;;3.65;1.13;;;15.00;99.90;;;;;;4900505;29;20087;-96
2023/07/20 21:01:09;;;;;;;2.00;0.90;;;15.30;99.90;;;;;;4938355;28;20055;-96
2023/07/20 21:03:40;;;;;;;2.53;1.02;;;15.10;99.90;;;;;;4925485;29;20616;-96
2023/07/20 21:06:32;;;;;;;1.92;1.00;;;15.10;99.90;;;;;;4951103;28;20047;-96
2023/07/20 21:13:33;;;;;;;1.80;1.10;;;14.90;99.90;;;;;;4879643;29;20177;-96
2023/07/20 21:19:49;;;;;;;5.40;1.27;;;15.20;99.90;;;;;;4898559;29;20083;-96
2023/07/20 21:26:44;;;;;;;3.15;1.40;;;15.20;99.90;;;;;;4926621;29;20220;-96
2023/07/20 21:29:45;;;;;;;2.15;1.00;;;15.20;99.90;;;;;;4902852;29;20044;-96
2023/07/20 21:36:36;;;;;;;3.60;1.35;;;15.20;99.90;;;;;;4873434;29;20044;-96
2023/07/20 21:39:26;;;;;;;1.77;1.17;;;15.20;99.90;;;;;;4911865;29;20458;-96
2023/07/20 21:42:39;;;;;;;;;;;;;;;;;;;;;
2023/07/20 21:45:31;;;;;;;5.25;1.55;;;15.20;99.90;;;;;;4909254;29;20051;-96
2023/07/20 21:48:59;;;;;;;2.50;2.10;;;15.10;99.90;;;;;;4930529;29;20047;-96
2023/07/20 21:55:30;;;;;;;6.95;6.35;;;15.10;99.90;;;;;;4926630;29;20023;-95
2023/07/20 21:58:12;;;;;;;6.07;5.32;;;14.70;99.90;;;;;;4916537;29;20084;-96
2023/07/20 22:01:27;;;;;;;3.92;3.53;;;14.80;99.90;;;;;;4922623;28;20101;-96
2023/07/20 22:04:34;;;;;;;3.30;1.88;;;14.90;99.90;;;;;;4933121;29;20059;-95
2023/07/20 22:07:50;;;;;;;;;;;;;;;;;;;;;
2023/07/20 22:21:57;;;;;;;;;;;;;;;;;;;;;
2023/07/20 22:24:39;;;;;;;4.07;2.85;;;14.70;99.90;;;;;;5004061;28;20038;-96
2023/07/20 22:31:58;;;;;;;3.22;2.33;;;14.50;99.90;;;;;;4976024;28;20039;-96
2023/07/20 22:42:05;;;;;;;2.53;1.60;;;13.80;99.90;;;;;;4944037;29;20070;-96
2023/07/20 22:48:47;;;;;;;2.75;1.60;;;14.30;99.90;;;;;;4936546;29;20091;-96
2023/07/20 22:51:47;;;;;;;;;;;;;;;;;;;;;
2023/07/20 22:55:29;;;;;;;4.32;2.10;;;14.30;99.90;;;;;;5000409;28;20050;-96
2023/07/20 22:58:50;;;;;;;2.70;1.60;;;14.10;99.90;;;;;;4954423;29;20089;-96
2023/07/20 23:02:06;;;;;;;4.75;2.05;;;14.00;99.90;;;;;;4941912;28;20073;-96
2023/07/20 23:05:15;;;;;;;4.35;2.00;;;14.20;99.90;;;;;;4922901;29;20072;-96
2023/07/20 23:07:55;;;;;;;8.38;3.70;;;14.20;99.90;;;;;;4952268;29;20055;-96
2023/07/20 23:10:38;;;;;;;7.47;3.80;;;14.20;99.90;;;;;;4919703;29;20116;-96
2023/07/20 23:13:27;;;;;;;6.93;3.90;;;14.20;99.90;;;;;;4914007;29;20552;-96
2023/07/20 23:16:54;;;;;;;;;;;;;;;;;;;;;
2023/07/20 23:19:32;;;;;;;3.78;2.22;;;14.20;99.90;;;;;;4911946;29;20056;-96
2023/07/20 23:22:20;;;;;;;3.38;1.90;;;14.20;99.90;;;;;;4921176;29;20628;-96
2023/07/20 23:25:04;;;;;;;3.65;1.80;;;14.20;99.90;;;;;;4892565;29;20226;-96
2023/07/20 23:28:14;;;;;;;;;;;;;;;;;;;;;
2023/07/20 23:30:56;;;;;;;7.47;2.90;;;14.10;99.90;;;;;;4921228;29;20055;-96
2023/07/20 23:33:58;;;;;;;5.90;2.80;;;14.10;99.90;;;;;;4922518;29;20093;-96
2023/07/20 23:36:45;;;;;;;7.80;3.53;;;14.10;99.90;;;;;;4941526;29;20067;-96
2023/07/20 23:39:28;;;;;;;5.72;3.75;;;14.00;99.90;;;;;;4964206;28;20078;-96
2023/07/20 23:42:07;;;;;;;6.47;3.65;;;14.00;99.90;;;;;;4961099;28;20050;-96
2023/07/20 23:45:13;;;;;;;6.65;3.47;;;13.90;99.90;;;;;;4993527;28;20058;-96
2023/07/20 23:47:42;;;;;;;6.47;3.65;;;13.90;99.90;;;;;;4952774;28;20150;-95
2023/07/20 23:50:38;;;;;;;7.57;4.80;;;14.00;99.90;;;;;;4932894;29;20067;-96
2023/07/20 23:53:16;;;;;;;9.02;5.88;;;14.50;99.90;;;;;;4973385;28;20489;-96
2023/07/20 23:56:44;;;;;;;6.38;4.57;;;13.30;99.90;;;;;;4989924;28;20051;-96
2023/07/20 23:59:32;;;;;;;;;;;13.90;99.90;;;;;;4970983;28;20062;-96
